createdAt,value
2022-08-27T00:00:47.156Z,99929.00
2022-08-27T00:05:49.631Z,99893.66
2022-08-27T00:10:52.142Z,99932.97
2022-08-27T00:15:54.499Z,99919.22
2022-08-27T00:20:56.973Z,99936.03
2022-08-27T00:26:00.289Z,99931.69
2022-08-27T00:31:02.578Z,99949.25
2022-08-27T00:36:05.420Z,99922.38
2022-08-27T00:41:18.331Z,99916.56
2022-08-27T00:46:25.729Z,99859.16
2022-08-27T00:51:29.282Z,99937.63
2022-08-27T00:56:45.524Z,99930.75
2022-08-27T01:02:12.255Z,99895.44
2022-08-27T01:07:15.004Z,99956.50
2022-08-27T01:12:17.482Z,99903.66
2022-08-27T01:17:20.383Z,99899.31
2022-08-27T01:22:42.604Z,99961.88
2022-08-27T01:27:49.263Z,99974.47
2022-08-27T01:32:51.675Z,99922.44
2022-08-27T01:37:57.091Z,99965.16
2022-08-27T01:43:00.584Z,99955.69
2022-08-27T01:48:03.858Z,99927.91
2022-08-27T01:53:09.311Z,99976.75
2022-08-27T01:58:15.058Z,99890.72
2022-08-27T02:03:18.776Z,99967.34
2022-08-27T02:08:21.486Z,99963.22
2022-08-27T02:13:24.002Z,99945.78
2022-08-27T02:18:26.386Z,99942.38
2022-08-27T02:23:28.760Z,99945.09
2022-08-27T02:28:31.025Z,99967.91
2022-08-27T02:33:33.755Z,99912.22
2022-08-27T02:38:36.210Z,99916.59
2022-08-27T02:43:38.816Z,99928.03
2022-08-27T02:48:41.431Z,99984.56
2022-08-27T02:53:44.225Z,99906.47
2022-08-27T02:58:48.097Z,99978.75
2022-08-27T03:03:51.361Z,99987.47
2022-08-27T03:08:53.757Z,99987.38
2022-08-27T03:13:56.092Z,99993.53
2022-08-27T03:18:58.327Z,99854.28
2022-08-27T03:24:11.146Z,99978.69
2022-08-27T03:29:14.183Z,99956.81
2022-08-27T03:34:19.747Z,99985.47
2022-08-27T03:39:22.396Z,99935.69
2022-08-27T03:44:25.019Z,99933.25
2022-08-27T03:49:27.249Z,99976.53
2022-08-27T03:54:48.343Z,99991.25
2022-08-27T03:59:52.284Z,99955.34
2022-08-27T04:04:58.027Z,99977.88
2022-08-27T04:10:00.821Z,100003.94
2022-08-27T04:15:03.357Z,100006.44
2022-08-27T04:20:34.205Z,99955.88
2022-08-27T04:25:31.543Z,100016.59
2022-08-27T04:30:33.833Z,99965.09
2022-08-27T04:35:36.544Z,100005.72
2022-08-27T04:41:09.406Z,99966.50
2022-08-27T04:46:12.160Z,100010.50
2022-08-27T04:51:14.634Z,99960.66
2022-08-27T04:56:22.934Z,99970.81
2022-08-27T05:01:30.017Z,99996.63
2022-08-27T05:06:33.287Z,100004.16
2022-08-27T05:16:59.520Z,99951.06
2022-08-27T05:22:04.799Z,99957.59
2022-08-27T05:27:12.989Z,99948.38
2022-08-27T05:32:15.432Z,99980.03
2022-08-27T05:37:17.829Z,100010.66
2022-08-27T05:42:20.173Z,99969.94
2022-08-27T05:47:23.224Z,99963.78
2022-08-27T05:52:25.772Z,99894.78
2022-08-27T05:57:28.022Z,99928.59
2022-08-27T06:02:30.516Z,99960.66
2022-08-27T06:07:35.178Z,99959.03
2022-08-27T06:12:37.550Z,100003.19
2022-08-27T06:17:39.800Z,99983.06
2022-08-27T06:22:42.217Z,99937.16
2022-08-27T06:27:46.258Z,99905.03
2022-08-27T06:32:48.662Z,99924.09
2022-08-27T06:37:51.633Z,99967.50
2022-08-27T06:42:54.016Z,99946.34
2022-08-27T06:47:56.404Z,99939.44
2022-08-27T06:53:00.326Z,99942.88
2022-08-27T06:58:03.903Z,99937.91
2022-08-27T07:03:06.736Z,99904.44
2022-08-27T07:08:10.546Z,99957.28
2022-08-27T07:13:12.917Z,99915.16
2022-08-27T07:18:15.276Z,99973.91
2022-08-27T07:23:37.061Z,99957.00
2022-08-27T07:28:42.823Z,99960.44
2022-08-27T07:33:46.151Z,99978.63
2022-08-27T07:39:03.196Z,99919.63
2022-08-27T07:44:25.993Z,99921.47
2022-08-27T07:49:29.333Z,99934.53
2022-08-27T07:54:38.260Z,99899.25
2022-08-27T07:59:41.645Z,99969.50
2022-08-27T08:04:47.939Z,99925.78
2022-08-27T08:09:50.308Z,99946.53
2022-08-27T08:14:58.033Z,99948.16
2022-08-27T08:20:20.029Z,99930.97
2022-08-27T08:25:24.827Z,99923.53
2022-08-27T08:35:45.730Z,99727.50
2022-08-27T08:40:54.526Z,99889.41
2022-08-27T08:45:58.927Z,99909.28
2022-08-27T09:01:58.833Z,99843.34
2022-08-27T09:07:23.150Z,99938.75
2022-08-27T09:12:33.698Z,99935.00
2022-08-27T09:17:37.051Z,99842.53
2022-08-27T09:22:45.225Z,99920.44
2022-08-27T09:27:52.251Z,99905.75
2022-08-27T09:32:59.817Z,99930.78
2022-08-27T09:38:05.450Z,99914.16
2022-08-27T09:43:28.752Z,99894.84
2022-08-27T09:48:34.455Z,99836.75
2022-08-27T09:53:50.636Z,99930.38
2022-08-27T09:59:00.215Z,99854.91
2022-08-27T10:04:13.284Z,99932.78
2022-08-27T10:09:34.082Z,99928.25
2022-08-27T10:14:45.731Z,99904.22
2022-08-27T10:20:00.014Z,99909.50
2022-08-27T10:25:41.517Z,99846.63
2022-08-27T10:30:59.707Z,99892.91
2022-08-27T10:36:17.162Z,99851.13
2022-08-27T10:41:40.991Z,99718.72
2022-08-27T10:46:50.492Z,99911.09
2022-08-27T10:52:32.481Z,99913.13
2022-08-27T10:58:09.141Z,99907.50
2022-08-27T11:03:17.171Z,99901.59
2022-08-27T11:08:40.415Z,99896.94
2022-08-27T11:13:48.637Z,99869.94
2022-08-27T11:19:23.666Z,99844.19
2022-08-27T11:24:39.548Z,99852.59
2022-08-27T11:30:01.319Z,99831.38
2022-08-27T11:35:24.358Z,99837.69
2022-08-27T11:40:42.262Z,99885.13
2022-08-27T11:45:54.064Z,99884.88
2022-08-27T11:51:10.113Z,99817.56
2022-08-27T11:56:18.131Z,99853.72
2022-08-27T12:01:29.211Z,99849.81
2022-08-27T12:07:00.190Z,99806.09
2022-08-27T12:12:19.236Z,99803.06
2022-08-27T12:17:41.238Z,99809.09
2022-08-27T12:23:07.944Z,99854.97
2022-08-27T12:28:10.532Z,99853.13
2022-08-27T12:33:20.192Z,99825.78
2022-08-27T12:38:50.524Z,99843.25
2022-08-27T12:44:07.639Z,99814.59
2022-08-27T12:49:35.981Z,99828.47
2022-08-27T12:54:52.498Z,99756.28
2022-08-27T13:00:05.366Z,99826.28
2022-08-27T13:05:34.698Z,99652.97
2022-08-27T13:10:37.971Z,99804.66
2022-08-27T13:21:46.469Z,99779.53
2022-08-27T13:27:23.815Z,99819.41
2022-08-27T13:32:28.349Z,99762.81
2022-08-27T13:37:43.930Z,99770.00
2022-08-27T13:42:57.037Z,99827.47
2022-08-27T13:48:00.893Z,99788.84
2022-08-27T13:58:49.590Z,99813.63
2022-08-27T14:09:19.931Z,99733.28
2022-08-27T14:14:38.540Z,99797.34
2022-08-27T14:19:45.370Z,99801.22
2022-08-27T14:24:53.431Z,99810.28
2022-08-27T14:29:55.917Z,99774.03
2022-08-27T14:34:58.401Z,99782.56
2022-08-27T14:40:01.125Z,99785.72
2022-08-27T14:45:06.919Z,99795.78
2022-08-27T14:50:11.916Z,99794.41
2022-08-27T14:55:14.668Z,99731.84
2022-08-27T15:05:44.051Z,99761.13
2022-08-27T15:16:05.964Z,99772.94
2022-08-27T15:21:08.420Z,99717.41
2022-08-27T15:26:10.766Z,99782.16
2022-08-27T15:31:13.114Z,99763.88
2022-08-27T15:36:15.775Z,99788.50
2022-08-27T15:41:18.252Z,99679.69
2022-08-27T15:46:20.685Z,99792.88
2022-08-27T15:51:29.130Z,99761.81
2022-08-27T15:56:34.588Z,99709.16
2022-08-27T16:01:38.198Z,99772.75
2022-08-27T16:06:42.821Z,99744.03
2022-08-27T16:11:47.872Z,99778.34
2022-08-27T16:16:50.652Z,99748.22
2022-08-27T16:21:54.467Z,99759.44
2022-08-27T16:26:56.784Z,99707.28
2022-08-27T16:32:01.244Z,99756.31
2022-08-27T16:37:03.939Z,99735.69
2022-08-27T16:42:10.321Z,99772.81
2022-08-27T16:47:12.744Z,99740.88
2022-08-27T16:57:43.285Z,99772.00
2022-08-27T17:08:26.698Z,99675.31
2022-08-27T17:13:32.796Z,99769.75
2022-08-27T17:18:38.786Z,99760.56
2022-08-27T17:23:45.325Z,99713.16
2022-08-27T17:28:47.947Z,99782.88
2022-08-27T17:33:53.261Z,99760.44
2022-08-27T17:38:56.205Z,99568.94
2022-08-27T17:44:01.282Z,99792.97
2022-08-27T17:49:06.508Z,99721.59
2022-08-27T17:54:28.026Z,99710.00
2022-08-27T17:59:31.875Z,99802.81
2022-08-27T18:04:34.317Z,99762.69
2022-08-27T18:09:36.921Z,99753.47
2022-08-27T18:14:39.256Z,99709.06
2022-08-27T18:19:45.488Z,99807.38
2022-08-27T18:24:49.300Z,99793.19
2022-08-27T18:29:51.694Z,99745.28
2022-08-27T18:35:01.954Z,99711.94
2022-08-27T18:40:06.745Z,99796.88
2022-08-27T18:45:11.792Z,99782.34
2022-08-27T18:50:17.595Z,99723.19
2022-08-27T18:55:25.610Z,99773.13
2022-08-27T19:00:29.000Z,99759.28
2022-08-27T19:05:31.529Z,99757.97
2022-08-27T19:10:34.588Z,99802.47
2022-08-27T19:15:37.060Z,99771.56
2022-08-27T19:20:39.453Z,99801.56
2022-08-27T19:25:42.195Z,99810.31
2022-08-27T19:30:45.135Z,99675.41
2022-08-27T19:35:47.411Z,99791.38
2022-08-27T19:40:49.740Z,99582.44
2022-08-27T19:45:52.137Z,99810.16
2022-08-27T19:50:57.733Z,99770.50
2022-08-27T19:56:00.101Z,99696.19
2022-08-27T20:01:07.715Z,99774.22
2022-08-27T20:06:10.202Z,99805.13
2022-08-27T20:11:12.819Z,99671.16
2022-08-27T20:16:15.245Z,99770.16
2022-08-27T20:21:17.761Z,99797.41
2022-08-27T20:26:24.902Z,99791.66
2022-08-27T20:31:29.864Z,99824.75
2022-08-27T20:36:33.273Z,99807.75
2022-08-27T20:41:37.903Z,99794.16
2022-08-27T20:46:42.237Z,99765.88
2022-08-27T20:52:02.676Z,99797.38
2022-08-27T20:57:08.331Z,99684.09
2022-08-27T21:02:12.306Z,99810.53
2022-08-27T21:07:16.601Z,99623.88
2022-08-27T21:12:22.583Z,99765.22
2022-08-27T21:17:27.452Z,99796.56
2022-08-27T21:22:29.804Z,99751.56
2022-08-27T21:27:32.228Z,99784.88
2022-08-27T21:32:34.487Z,99806.66
2022-08-27T21:37:37.302Z,99700.25
2022-08-27T21:42:39.715Z,99790.50
2022-08-27T21:47:41.984Z,99792.19
2022-08-27T21:52:44.391Z,99775.09
2022-08-27T21:57:50.997Z,99770.81
2022-08-27T22:02:53.362Z,99697.97
2022-08-27T22:07:55.690Z,99650.44
2022-08-27T22:13:00.194Z,99751.47
2022-08-27T22:18:02.963Z,99742.88
2022-08-27T22:23:10.073Z,99775.78
2022-08-27T22:28:13.524Z,99775.91
2022-08-27T22:33:16.445Z,99776.88
2022-08-27T22:38:18.693Z,99628.75
2022-08-27T22:43:21.168Z,99660.19
2022-08-27T22:48:23.856Z,99752.09
2022-08-27T22:53:26.375Z,99708.69
2022-08-27T22:58:28.607Z,99690.06
2022-08-27T23:03:30.935Z,99761.16
2022-08-27T23:08:33.169Z,99686.78
2022-08-27T23:13:35.354Z,99766.56
2022-08-27T23:18:40.910Z,99704.19
2022-08-27T23:23:43.360Z,99686.34
2022-08-27T23:28:45.741Z,99621.03
2022-08-27T23:33:52.398Z,99732.09
2022-08-27T23:38:54.585Z,99672.22
2022-08-27T23:43:57.165Z,99705.38
2022-08-27T23:48:59.539Z,99568.56
2022-08-27T23:54:02.837Z,99701.53
2022-08-27T23:59:05.810Z,99716.13
